sensor_id;sensor_type;location;lat;lon;timestamp;P1;durP1;ratioP1;P2;durP2;ratioP2
17886;SDS011;9069;52.044;7.472;2023-06-22T00:00:54;7.53;;;5.93;;
17886;SDS011;9069;52.044;7.472;2023-06-22T00:03:22;10.70;;;6.22;;
17886;SDS011;9069;52.044;7.472;2023-06-22T00:05:50;9.25;;;6.38;;
17886;SDS011;9069;52.044;7.472;2023-06-22T00:08:18;11.85;;;6.15;;
17886;SDS011;9069;52.044;7.472;2023-06-22T00:10:46;10.13;;;5.97;;
17886;SDS011;9069;52.044;7.472;2023-06-22T00:13:13;8.02;;;5.65;;
17886;SDS011;9069;52.044;7.472;2023-06-22T00:15:41;7.88;;;6.75;;
17886;SDS011;9069;52.044;7.472;2023-06-22T00:18:08;6.97;;;6.28;;
17886;SDS011;9069;52.044;7.472;2023-06-22T00:20:36;7.70;;;6.53;;
17886;SDS011;9069;52.044;7.472;2023-06-22T00:23:04;10.73;;;6.25;;
17886;SDS011;9069;52.044;7.472;2023-06-22T00:25:35;9.00;;;6.15;;
17886;SDS011;9069;52.044;7.472;2023-06-22T00:28:02;7.97;;;6.20;;
17886;SDS011;9069;52.044;7.472;2023-06-22T00:30:30;8.20;;;6.30;;
17886;SDS011;9069;52.044;7.472;2023-06-22T00:32:58;10.40;;;6.55;;
17886;SDS011;9069;52.044;7.472;2023-06-22T00:35:26;8.70;;;6.63;;
17886;SDS011;9069;52.044;7.472;2023-06-22T00:37:55;7.35;;;5.72;;
17886;SDS011;9069;52.044;7.472;2023-06-22T00:40:31;7.90;;;6.15;;
17886;SDS011;9069;52.044;7.472;2023-06-22T00:42:58;10.20;;;6.43;;
17886;SDS011;9069;52.044;7.472;2023-06-22T00:45:26;9.35;;;7.15;;
17886;SDS011;9069;52.044;7.472;2023-06-22T00:47:54;8.10;;;6.20;;
17886;SDS011;9069;52.044;7.472;2023-06-22T00:50:24;7.18;;;6.22;;
17886;SDS011;9069;52.044;7.472;2023-06-22T00:52:57;8.10;;;6.65;;
17886;SDS011;9069;52.044;7.472;2023-06-22T00:55:35;10.40;;;6.90;;
17886;SDS011;9069;52.044;7.472;2023-06-22T00:58:13;9.07;;;6.68;;
17886;SDS011;9069;52.044;7.472;2023-06-22T01:00:40;8.98;;;7.32;;
17886;SDS011;9069;52.044;7.472;2023-06-22T01:03:08;9.02;;;7.43;;
17886;SDS011;9069;52.044;7.472;2023-06-22T01:05:36;10.48;;;6.55;;
17886;SDS011;9069;52.044;7.472;2023-06-22T01:10:50;9.23;;;6.80;;
17886;SDS011;9069;52.044;7.472;2023-06-22T01:16:07;8.18;;;6.32;;
17886;SDS011;9069;52.044;7.472;2023-06-22T01:18:45;8.32;;;6.35;;
17886;SDS011;9069;52.044;7.472;2023-06-22T01:21:16;8.93;;;5.78;;
17886;SDS011;9069;52.044;7.472;2023-06-22T01:23:54;10.90;;;6.80;;
17886;SDS011;9069;52.044;7.472;2023-06-22T01:26:43;10.18;;;7.40;;
17886;SDS011;9069;52.044;7.472;2023-06-22T01:29:22;8.07;;;6.40;;
17886;SDS011;9069;52.044;7.472;2023-06-22T01:31:52;10.93;;;7.13;;
17886;SDS011;9069;52.044;7.472;2023-06-22T01:34:22;8.88;;;6.85;;
17886;SDS011;9069;52.044;7.472;2023-06-22T01:36:50;8.13;;;6.72;;
17886;SDS011;9069;52.044;7.472;2023-06-22T01:39:18;9.48;;;6.32;;
17886;SDS011;9069;52.044;7.472;2023-06-22T01:41:47;11.88;;;6.47;;
17886;SDS011;9069;52.044;7.472;2023-06-22T01:44:14;8.13;;;6.75;;
17886;SDS011;9069;52.044;7.472;2023-06-22T01:46:42;7.65;;;6.65;;
17886;SDS011;9069;52.044;7.472;2023-06-22T01:49:09;8.27;;;6.78;;
17886;SDS011;9069;52.044;7.472;2023-06-22T01:51:36;9.18;;;6.95;;
17886;SDS011;9069;52.044;7.472;2023-06-22T01:54:05;11.02;;;7.03;;
17886;SDS011;9069;52.044;7.472;2023-06-22T01:56:32;9.50;;;7.10;;
17886;SDS011;9069;52.044;7.472;2023-06-22T01:59:23;8.30;;;6.47;;
17886;SDS011;9069;52.044;7.472;2023-06-22T02:02:02;10.38;;;7.25;;
17886;SDS011;9069;52.044;7.472;2023-06-22T02:04:42;9.20;;;6.95;;
17886;SDS011;9069;52.044;7.472;2023-06-22T02:07:17;8.00;;;6.45;;
17886;SDS011;9069;52.044;7.472;2023-06-22T02:09:47;9.80;;;6.43;;
17886;SDS011;9069;52.044;7.472;2023-06-22T02:12:18;8.43;;;6.30;;
17886;SDS011;9069;52.044;7.472;2023-06-22T02:14:49;10.15;;;6.45;;
17886;SDS011;9069;52.044;7.472;2023-06-22T02:17:18;8.48;;;6.47;;
17886;SDS011;9069;52.044;7.472;2023-06-22T02:19:45;8.80;;;6.85;;
17886;SDS011;9069;52.044;7.472;2023-06-22T02:22:13;11.43;;;7.70;;
17886;SDS011;9069;52.044;7.472;2023-06-22T02:24:40;10.25;;;7.15;;
17886;SDS011;9069;52.044;7.472;2023-06-22T02:27:06;7.78;;;6.43;;
17886;SDS011;9069;52.044;7.472;2023-06-22T02:29:33;9.15;;;6.57;;
17886;SDS011;9069;52.044;7.472;2023-06-22T02:32:01;8.32;;;7.00;;
17886;SDS011;9069;52.044;7.472;2023-06-22T02:34:28;9.10;;;7.30;;
17886;SDS011;9069;52.044;7.472;2023-06-22T02:36:55;9.43;;;7.43;;
17886;SDS011;9069;52.044;7.472;2023-06-22T02:39:22;10.02;;;7.30;;
17886;SDS011;9069;52.044;7.472;2023-06-22T02:41:51;10.32;;;7.80;;
17886;SDS011;9069;52.044;7.472;2023-06-22T02:44:21;9.43;;;6.82;;
17886;SDS011;9069;52.044;7.472;2023-06-22T02:46:48;10.80;;;7.53;;
17886;SDS011;9069;52.044;7.472;2023-06-22T02:49:15;10.68;;;7.72;;
17886;SDS011;9069;52.044;7.472;2023-06-22T02:51:45;10.20;;;6.53;;
17886;SDS011;9069;52.044;7.472;2023-06-22T02:54:15;10.98;;;7.28;;
17886;SDS011;9069;52.044;7.472;2023-06-22T02:56:43;8.73;;;7.20;;
17886;SDS011;9069;52.044;7.472;2023-06-22T02:59:10;9.27;;;7.80;;
17886;SDS011;9069;52.044;7.472;2023-06-22T03:01:38;12.02;;;7.55;;
17886;SDS011;9069;52.044;7.472;2023-06-22T03:04:15;9.25;;;7.07;;
17886;SDS011;9069;52.044;7.472;2023-06-22T03:06:42;9.75;;;7.53;;
17886;SDS011;9069;52.044;7.472;2023-06-22T03:09:09;9.50;;;6.95;;
17886;SDS011;9069;52.044;7.472;2023-06-22T03:11:36;13.52;;;7.57;;
17886;SDS011;9069;52.044;7.472;2023-06-22T03:14:03;9.00;;;7.35;;
17886;SDS011;9069;52.044;7.472;2023-06-22T03:16:30;9.50;;;7.90;;
17886;SDS011;9069;52.044;7.472;2023-06-22T03:18:57;9.95;;;7.45;;
17886;SDS011;9069;52.044;7.472;2023-06-22T03:21:27;8.02;;;6.68;;
17886;SDS011;9069;52.044;7.472;2023-06-22T03:23:55;10.70;;;7.65;;
17886;SDS011;9069;52.044;7.472;2023-06-22T03:26:22;8.45;;;6.63;;
17886;SDS011;9069;52.044;7.472;2023-06-22T03:28:50;9.98;;;7.43;;
17886;SDS011;9069;52.044;7.472;2023-06-22T03:31:16;11.25;;;7.32;;
17886;SDS011;9069;52.044;7.472;2023-06-22T03:33:48;10.23;;;7.35;;
17886;SDS011;9069;52.044;7.472;2023-06-22T03:36:16;12.02;;;7.78;;
17886;SDS011;9069;52.044;7.472;2023-06-22T03:38:47;10.10;;;7.20;;
17886;SDS011;9069;52.044;7.472;2023-06-22T03:41:15;10.45;;;7.55;;
17886;SDS011;9069;52.044;7.472;2023-06-22T03:43:42;9.25;;;6.95;;
17886;SDS011;9069;52.044;7.472;2023-06-22T03:46:09;8.95;;;7.07;;
17886;SDS011;9069;52.044;7.472;2023-06-22T03:48:37;14.15;;;8.48;;
17886;SDS011;9069;52.044;7.472;2023-06-22T03:51:04;11.13;;;7.82;;
17886;SDS011;9069;52.044;7.472;2023-06-22T03:53:31;8.82;;;7.03;;
17886;SDS011;9069;52.044;7.472;2023-06-22T03:55:57;9.77;;;7.32;;
17886;SDS011;9069;52.044;7.472;2023-06-22T03:58:24;10.70;;;7.00;;
17886;SDS011;9069;52.044;7.472;2023-06-22T04:00:52;10.73;;;7.45;;
17886;SDS011;9069;52.044;7.472;2023-06-22T04:03:19;7.97;;;6.80;;
17886;SDS011;9069;52.044;7.472;2023-06-22T04:05:46;19.17;;;8.82;;
17886;SDS011;9069;52.044;7.472;2023-06-22T04:08:14;11.95;;;7.40;;
17886;SDS011;9069;52.044;7.472;2023-06-22T04:10:41;9.98;;;6.97;;
17886;SDS011;9069;52.044;7.472;2023-06-22T04:13:08;10.18;;;7.57;;
17886;SDS011;9069;52.044;7.472;2023-06-22T04:15:35;10.55;;;7.80;;
17886;SDS011;9069;52.044;7.472;2023-06-22T04:18:02;10.27;;;7.57;;
17886;SDS011;9069;52.044;7.472;2023-06-22T04:20:30;10.48;;;7.78;;
17886;SDS011;9069;52.044;7.472;2023-06-22T04:22:58;13.80;;;8.70;;
17886;SDS011;9069;52.044;7.472;2023-06-22T04:25:25;11.75;;;8.07;;
17886;SDS011;9069;52.044;7.472;2023-06-22T04:27:51;10.07;;;8.02;;
17886;SDS011;9069;52.044;7.472;2023-06-22T04:30:18;11.02;;;7.35;;
17886;SDS011;9069;52.044;7.472;2023-06-22T04:32:45;8.13;;;6.72;;
17886;SDS011;9069;52.044;7.472;2023-06-22T04:35:24;10.85;;;8.20;;
17886;SDS011;9069;52.044;7.472;2023-06-22T04:37:50;11.77;;;7.20;;
17886;SDS011;9069;52.044;7.472;2023-06-22T04:40:21;12.43;;;7.55;;
17886;SDS011;9069;52.044;7.472;2023-06-22T04:42:49;9.00;;;7.28;;
17886;SDS011;9069;52.044;7.472;2023-06-22T04:45:19;10.07;;;7.65;;
17886;SDS011;9069;52.044;7.472;2023-06-22T04:47:47;9.13;;;7.20;;
17886;SDS011;9069;52.044;7.472;2023-06-22T04:50:14;9.65;;;7.50;;
17886;SDS011;9069;52.044;7.472;2023-06-22T04:52:41;10.48;;;7.43;;
17886;SDS011;9069;52.044;7.472;2023-06-22T04:55:08;10.05;;;7.28;;
17886;SDS011;9069;52.044;7.472;2023-06-22T04:57:35;11.20;;;7.53;;
17886;SDS011;9069;52.044;7.472;2023-06-22T05:00:05;11.68;;;7.75;;
17886;SDS011;9069;52.044;7.472;2023-06-22T05:02:38;10.23;;;6.90;;
17886;SDS011;9069;52.044;7.472;2023-06-22T05:05:06;8.93;;;6.05;;
17886;SDS011;9069;52.044;7.472;2023-06-22T05:07:34;11.15;;;7.22;;
17886;SDS011;9069;52.044;7.472;2023-06-22T05:10:01;7.30;;;6.32;;
17886;SDS011;9069;52.044;7.472;2023-06-22T05:12:29;10.82;;;7.82;;
17886;SDS011;9069;52.044;7.472;2023-06-22T05:14:56;14.70;;;7.80;;
17886;SDS011;9069;52.044;7.472;2023-06-22T05:17:23;9.00;;;6.68;;
17886;SDS011;9069;52.044;7.472;2023-06-22T05:19:51;9.38;;;6.75;;
17886;SDS011;9069;52.044;7.472;2023-06-22T05:22:18;9.02;;;6.88;;
17886;SDS011;9069;52.044;7.472;2023-06-22T05:24:45;11.48;;;6.68;;
17886;SDS011;9069;52.044;7.472;2023-06-22T05:27:13;8.40;;;5.68;;
17886;SDS011;9069;52.044;7.472;2023-06-22T05:29:40;8.93;;;6.53;;
17886;SDS011;9069;52.044;7.472;2023-06-22T05:32:09;10.00;;;6.45;;
17886;SDS011;9069;52.044;7.472;2023-06-22T05:34:36;9.48;;;6.65;;
17886;SDS011;9069;52.044;7.472;2023-06-22T05:37:03;7.65;;;6.40;;
17886;SDS011;9069;52.044;7.472;2023-06-22T05:39:30;9.02;;;6.30;;
17886;SDS011;9069;52.044;7.472;2023-06-22T05:41:56;10.13;;;7.00;;
17886;SDS011;9069;52.044;7.472;2023-06-22T05:44:23;9.63;;;6.70;;
17886;SDS011;9069;52.044;7.472;2023-06-22T05:46:50;11.80;;;6.90;;
17886;SDS011;9069;52.044;7.472;2023-06-22T05:49:17;9.15;;;6.35;;
17886;SDS011;9069;52.044;7.472;2023-06-22T05:51:43;10.70;;;6.45;;
17886;SDS011;9069;52.044;7.472;2023-06-22T05:54:10;9.00;;;7.05;;
17886;SDS011;9069;52.044;7.472;2023-06-22T05:56:39;9.82;;;6.75;;
17886;SDS011;9069;52.044;7.472;2023-06-22T05:59:06;7.47;;;6.28;;
17886;SDS011;9069;52.044;7.472;2023-06-22T06:01:33;9.27;;;6.40;;
17886;SDS011;9069;52.044;7.472;2023-06-22T06:04:05;8.65;;;6.35;;
17886;SDS011;9069;52.044;7.472;2023-06-22T06:06:34;10.63;;;6.40;;
17886;SDS011;9069;52.044;7.472;2023-06-22T06:09:03;8.48;;;5.55;;
17886;SDS011;9069;52.044;7.472;2023-06-22T06:11:30;7.25;;;5.05;;
17886;SDS011;9069;52.044;7.472;2023-06-22T06:13:57;8.00;;;5.70;;
17886;SDS011;9069;52.044;7.472;2023-06-22T06:16:24;8.23;;;5.47;;
17886;SDS011;9069;52.044;7.472;2023-06-22T06:18:51;7.32;;;5.43;;
17886;SDS011;9069;52.044;7.472;2023-06-22T06:21:19;6.90;;;5.38;;
17886;SDS011;9069;52.044;7.472;2023-06-22T06:23:46;5.82;;;5.20;;
17886;SDS011;9069;52.044;7.472;2023-06-22T06:26:13;8.10;;;5.80;;
17886;SDS011;9069;52.044;7.472;2023-06-22T06:28:43;6.63;;;5.30;;
17886;SDS011;9069;52.044;7.472;2023-06-22T06:31:09;7.22;;;5.93;;
17886;SDS011;9069;52.044;7.472;2023-06-22T06:33:38;8.15;;;5.63;;
17886;SDS011;9069;52.044;7.472;2023-06-22T06:36:05;10.77;;;5.65;;
17886;SDS011;9069;52.044;7.472;2023-06-22T06:38:32;7.72;;;5.68;;
17886;SDS011;9069;52.044;7.472;2023-06-22T06:40:58;11.25;;;5.75;;
17886;SDS011;9069;52.044;7.472;2023-06-22T06:43:25;10.05;;;5.28;;
17886;SDS011;9069;52.044;7.472;2023-06-22T06:45:52;6.95;;;5.38;;
17886;SDS011;9069;52.044;7.472;2023-06-22T06:48:19;7.57;;;5.68;;
17886;SDS011;9069;52.044;7.472;2023-06-22T06:50:46;7.70;;;5.43;;
17886;SDS011;9069;52.044;7.472;2023-06-22T06:53:13;7.82;;;5.18;;
17886;SDS011;9069;52.044;7.472;2023-06-22T06:55:40;9.45;;;5.40;;
17886;SDS011;9069;52.044;7.472;2023-06-22T06:58:07;8.82;;;5.47;;
17886;SDS011;9069;52.044;7.472;2023-06-22T07:00:35;7.60;;;5.82;;
17886;SDS011;9069;52.044;7.472;2023-06-22T07:03:04;7.72;;;5.07;;
17886;SDS011;9069;52.044;7.472;2023-06-22T07:05:31;5.82;;;5.22;;
17886;SDS011;9069;52.044;7.472;2023-06-22T07:07:57;6.65;;;5.15;;
17886;SDS011;9069;52.044;7.472;2023-06-22T07:10:25;8.32;;;5.63;;
17886;SDS011;9069;52.044;7.472;2023-06-22T07:12:52;8.00;;;5.68;;
17886;SDS011;9069;52.044;7.472;2023-06-22T07:15:19;7.45;;;5.55;;
17886;SDS011;9069;52.044;7.472;2023-06-22T07:17:45;7.35;;;5.65;;
17886;SDS011;9069;52.044;7.472;2023-06-22T07:20:12;7.93;;;5.75;;
17886;SDS011;9069;52.044;7.472;2023-06-22T07:22:40;7.07;;;4.90;;
17886;SDS011;9069;52.044;7.472;2023-06-22T07:25:08;10.00;;;5.10;;
17886;SDS011;9069;52.044;7.472;2023-06-22T07:27:36;8.23;;;5.70;;
17886;SDS011;9069;52.044;7.472;2023-06-22T07:30:04;8.82;;;6.43;;
17886;SDS011;9069;52.044;7.472;2023-06-22T07:32:32;7.05;;;5.75;;
17886;SDS011;9069;52.044;7.472;2023-06-22T07:34:59;7.80;;;5.70;;
17886;SDS011;9069;52.044;7.472;2023-06-22T07:37:25;7.18;;;5.93;;
17886;SDS011;9069;52.044;7.472;2023-06-22T07:39:54;8.65;;;6.55;;
17886;SDS011;9069;52.044;7.472;2023-06-22T07:42:25;7.68;;;5.65;;
17886;SDS011;9069;52.044;7.472;2023-06-22T07:44:53;10.20;;;6.28;;
17886;SDS011;9069;52.044;7.472;2023-06-22T07:47:20;9.07;;;6.63;;
17886;SDS011;9069;52.044;7.472;2023-06-22T07:49:51;6.78;;;5.93;;
17886;SDS011;9069;52.044;7.472;2023-06-22T07:52:20;9.68;;;5.97;;
17886;SDS011;9069;52.044;7.472;2023-06-22T07:54:47;7.57;;;5.75;;
17886;SDS011;9069;52.044;7.472;2023-06-22T07:57:14;6.43;;;5.43;;
17886;SDS011;9069;52.044;7.472;2023-06-22T07:59:41;8.60;;;5.78;;
17886;SDS011;9069;52.044;7.472;2023-06-22T08:02:09;7.93;;;5.78;;
17886;SDS011;9069;52.044;7.472;2023-06-22T08:04:36;8.07;;;5.85;;
17886;SDS011;9069;52.044;7.472;2023-06-22T08:07:03;8.43;;;5.95;;
17886;SDS011;9069;52.044;7.472;2023-06-22T08:09:31;9.15;;;6.40;;
17886;SDS011;9069;52.044;7.472;2023-06-22T08:11:59;10.57;;;7.05;;
17886;SDS011;9069;52.044;7.472;2023-06-22T08:14:26;8.80;;;6.82;;
17886;SDS011;9069;52.044;7.472;2023-06-22T08:16:54;9.70;;;6.57;;
17886;SDS011;9069;52.044;7.472;2023-06-22T08:19:20;7.80;;;6.38;;
17886;SDS011;9069;52.044;7.472;2023-06-22T08:21:47;8.35;;;6.68;;
17886;SDS011;9069;52.044;7.472;2023-06-22T08:24:14;8.07;;;6.75;;
17886;SDS011;9069;52.044;7.472;2023-06-22T08:26:41;8.93;;;6.60;;
17886;SDS011;9069;52.044;7.472;2023-06-22T08:29:07;11.55;;;7.57;;
17886;SDS011;9069;52.044;7.472;2023-06-22T08:31:35;11.00;;;7.70;;
17886;SDS011;9069;52.044;7.472;2023-06-22T08:34:02;10.88;;;6.78;;
17886;SDS011;9069;52.044;7.472;2023-06-22T08:36:28;15.63;;;6.95;;
17886;SDS011;9069;52.044;7.472;2023-06-22T08:38:58;10.05;;;7.43;;
17886;SDS011;9069;52.044;7.472;2023-06-22T08:41:27;10.52;;;6.82;;
17886;SDS011;9069;52.044;7.472;2023-06-22T08:43:55;11.02;;;7.18;;
17886;SDS011;9069;52.044;7.472;2023-06-22T08:46:22;9.00;;;6.40;;
17886;SDS011;9069;52.044;7.472;2023-06-22T08:48:50;8.40;;;7.00;;
17886;SDS011;9069;52.044;7.472;2023-06-22T08:51:17;10.65;;;7.50;;
17886;SDS011;9069;52.044;7.472;2023-06-22T08:53:44;9.82;;;7.60;;
17886;SDS011;9069;52.044;7.472;2023-06-22T08:56:11;10.48;;;7.25;;
17886;SDS011;9069;52.044;7.472;2023-06-22T08:58:38;10.38;;;7.85;;
17886;SDS011;9069;52.044;7.472;2023-06-22T09:01:05;8.63;;;7.20;;
17886;SDS011;9069;52.044;7.472;2023-06-22T09:03:31;9.65;;;6.88;;
17886;SDS011;9069;52.044;7.472;2023-06-22T09:05:59;10.73;;;7.10;;
17886;SDS011;9069;52.044;7.472;2023-06-22T09:08:26;9.23;;;7.72;;
17886;SDS011;9069;52.044;7.472;2023-06-22T09:10:53;10.95;;;7.10;;
17886;SDS011;9069;52.044;7.472;2023-06-22T09:13:19;8.05;;;6.43;;
17886;SDS011;9069;52.044;7.472;2023-06-22T09:15:46;9.52;;;7.60;;
17886;SDS011;9069;52.044;7.472;2023-06-22T09:18:13;8.43;;;7.45;;
17886;SDS011;9069;52.044;7.472;2023-06-22T09:20:40;9.02;;;7.18;;
17886;SDS011;9069;52.044;7.472;2023-06-22T09:23:07;9.82;;;7.88;;
17886;SDS011;9069;52.044;7.472;2023-06-22T09:25:34;10.82;;;7.40;;
17886;SDS011;9069;52.044;7.472;2023-06-22T09:28:01;14.02;;;8.02;;
17886;SDS011;9069;52.044;7.472;2023-06-22T09:30:28;9.40;;;7.72;;
17886;SDS011;9069;52.044;7.472;2023-06-22T09:32:55;10.27;;;7.32;;
17886;SDS011;9069;52.044;7.472;2023-06-22T09:35:22;10.45;;;7.20;;
17886;SDS011;9069;52.044;7.472;2023-06-22T09:37:48;10.55;;;7.75;;
17886;SDS011;9069;52.044;7.472;2023-06-22T09:40:15;8.15;;;7.10;;
17886;SDS011;9069;52.044;7.472;2023-06-22T09:42:43;10.18;;;7.82;;
17886;SDS011;9069;52.044;7.472;2023-06-22T09:45:10;10.85;;;7.63;;
17886;SDS011;9069;52.044;7.472;2023-06-22T09:47:37;12.93;;;8.20;;
17886;SDS011;9069;52.044;7.472;2023-06-22T09:50:04;12.60;;;8.07;;
17886;SDS011;9069;52.044;7.472;2023-06-22T09:52:31;9.32;;;7.72;;
17886;SDS011;9069;52.044;7.472;2023-06-22T09:55:13;10.70;;;9.02;;
17886;SDS011;9069;52.044;7.472;2023-06-22T09:57:42;10.07;;;7.63;;
17886;SDS011;9069;52.044;7.472;2023-06-22T10:00:09;13.70;;;8.48;;
17886;SDS011;9069;52.044;7.472;2023-06-22T10:02:39;9.23;;;8.27;;
17886;SDS011;9069;52.044;7.472;2023-06-22T10:05:10;9.65;;;8.38;;
17886;SDS011;9069;52.044;7.472;2023-06-22T10:07:37;11.20;;;9.50;;
17886;SDS011;9069;52.044;7.472;2023-06-22T10:10:12;11.65;;;8.77;;
17886;SDS011;9069;52.044;7.472;2023-06-22T10:12:41;9.77;;;8.05;;
17886;SDS011;9069;52.044;7.472;2023-06-22T10:15:09;11.27;;;7.97;;
17886;SDS011;9069;52.044;7.472;2023-06-22T10:17:37;11.18;;;7.90;;
17886;SDS011;9069;52.044;7.472;2023-06-22T10:20:04;8.48;;;7.32;;
17886;SDS011;9069;52.044;7.472;2023-06-22T10:22:39;10.48;;;8.27;;
17886;SDS011;9069;52.044;7.472;2023-06-22T10:25:11;10.07;;;7.90;;
17886;SDS011;9069;52.044;7.472;2023-06-22T10:27:38;9.70;;;8.35;;
17886;SDS011;9069;52.044;7.472;2023-06-22T10:30:07;9.85;;;8.55;;
17886;SDS011;9069;52.044;7.472;2023-06-22T10:32:34;10.63;;;8.07;;
17886;SDS011;9069;52.044;7.472;2023-06-22T10:35:01;9.07;;;7.55;;
17886;SDS011;9069;52.044;7.472;2023-06-22T10:37:28;11.73;;;8.07;;
17886;SDS011;9069;52.044;7.472;2023-06-22T10:39:54;8.98;;;7.93;;
17886;SDS011;9069;52.044;7.472;2023-06-22T10:42:21;10.15;;;8.07;;
17886;SDS011;9069;52.044;7.472;2023-06-22T10:44:48;11.80;;;8.93;;
17886;SDS011;9069;52.044;7.472;2023-06-22T10:47:15;10.30;;;8.50;;
17886;SDS011;9069;52.044;7.472;2023-06-22T10:49:41;9.57;;;7.80;;
17886;SDS011;9069;52.044;7.472;2023-06-22T10:52:09;13.27;;;8.73;;
17886;SDS011;9069;52.044;7.472;2023-06-22T10:54:36;9.75;;;7.40;;
17886;SDS011;9069;52.044;7.472;2023-06-22T10:57:04;9.85;;;8.52;;
17886;SDS011;9069;52.044;7.472;2023-06-22T10:59:31;12.30;;;9.13;;
17886;SDS011;9069;52.044;7.472;2023-06-22T11:01:58;12.35;;;9.13;;
17886;SDS011;9069;52.044;7.472;2023-06-22T11:04:25;11.20;;;8.43;;
17886;SDS011;9069;52.044;7.472;2023-06-22T11:06:52;14.20;;;9.93;;
17886;SDS011;9069;52.044;7.472;2023-06-22T11:09:19;14.68;;;9.25;;
17886;SDS011;9069;52.044;7.472;2023-06-22T11:11:53;12.52;;;8.52;;
17886;SDS011;9069;52.044;7.472;2023-06-22T11:14:21;11.75;;;9.70;;
17886;SDS011;9069;52.044;7.472;2023-06-22T11:16:49;19.65;;;13.48;;
17886;SDS011;9069;52.044;7.472;2023-06-22T11:19:15;16.35;;;11.05;;
17886;SDS011;9069;52.044;7.472;2023-06-22T11:21:42;13.05;;;10.48;;
17886;SDS011;9069;52.044;7.472;2023-06-22T11:24:09;17.70;;;10.57;;
17886;SDS011;9069;52.044;7.472;2023-06-22T11:26:36;16.13;;;10.85;;
17886;SDS011;9069;52.044;7.472;2023-06-22T11:29:03;16.30;;;11.30;;
17886;SDS011;9069;52.044;7.472;2023-06-22T11:31:33;12.23;;;10.15;;
17886;SDS011;9069;52.044;7.472;2023-06-22T11:34:01;13.38;;;11.32;;
17886;SDS011;9069;52.044;7.472;2023-06-22T11:36:28;12.65;;;9.25;;
17886;SDS011;9069;52.044;7.472;2023-06-22T11:38:58;13.48;;;9.48;;
17886;SDS011;9069;52.044;7.472;2023-06-22T11:41:25;12.23;;;9.20;;
17886;SDS011;9069;52.044;7.472;2023-06-22T11:43:52;11.93;;;8.70;;
17886;SDS011;9069;52.044;7.472;2023-06-22T11:46:19;11.43;;;9.20;;
17886;SDS011;9069;52.044;7.472;2023-06-22T11:48:45;17.33;;;11.25;;
17886;SDS011;9069;52.044;7.472;2023-06-22T11:51:12;15.43;;;11.27;;
17886;SDS011;9069;52.044;7.472;2023-06-22T11:53:39;11.20;;;9.50;;
17886;SDS011;9069;52.044;7.472;2023-06-22T11:56:06;14.57;;;11.20;;
17886;SDS011;9069;52.044;7.472;2023-06-22T11:58:35;11.95;;;9.35;;
17886;SDS011;9069;52.044;7.472;2023-06-22T12:01:01;11.68;;;9.27;;
17886;SDS011;9069;52.044;7.472;2023-06-22T12:03:28;16.13;;;9.20;;
17886;SDS011;9069;52.044;7.472;2023-06-22T12:05:56;9.80;;;8.35;;
17886;SDS011;9069;52.044;7.472;2023-06-22T12:08:24;13.23;;;8.20;;
17886;SDS011;9069;52.044;7.472;2023-06-22T12:10:50;10.00;;;8.48;;
17886;SDS011;9069;52.044;7.472;2023-06-22T12:13:18;10.60;;;9.07;;
17886;SDS011;9069;52.044;7.472;2023-06-22T12:15:44;13.77;;;8.70;;
17886;SDS011;9069;52.044;7.472;2023-06-22T12:18:11;10.98;;;8.88;;
17886;SDS011;9069;52.044;7.472;2023-06-22T12:20:40;12.30;;;9.55;;
17886;SDS011;9069;52.044;7.472;2023-06-22T12:23:07;10.15;;;8.48;;
17886;SDS011;9069;52.044;7.472;2023-06-22T12:25:34;13.82;;;8.90;;
17886;SDS011;9069;52.044;7.472;2023-06-22T12:28:01;15.50;;;8.10;;
17886;SDS011;9069;52.044;7.472;2023-06-22T12:30:27;11.73;;;8.23;;
17886;SDS011;9069;52.044;7.472;2023-06-22T12:32:55;10.40;;;8.85;;
17886;SDS011;9069;52.044;7.472;2023-06-22T12:35:22;10.48;;;9.00;;
17886;SDS011;9069;52.044;7.472;2023-06-22T12:37:49;11.05;;;8.02;;
17886;SDS011;9069;52.044;7.472;2023-06-22T12:40:16;9.90;;;8.27;;
17886;SDS011;9069;52.044;7.472;2023-06-22T12:42:44;10.52;;;8.70;;
17886;SDS011;9069;52.044;7.472;2023-06-22T12:45:11;12.63;;;8.32;;
17886;SDS011;9069;52.044;7.472;2023-06-22T12:47:38;10.45;;;8.63;;
17886;SDS011;9069;52.044;7.472;2023-06-22T12:50:05;11.45;;;8.38;;
17886;SDS011;9069;52.044;7.472;2023-06-22T12:52:32;10.98;;;8.48;;
17886;SDS011;9069;52.044;7.472;2023-06-22T12:54:58;9.27;;;8.02;;
17886;SDS011;9069;52.044;7.472;2023-06-22T12:57:25;8.90;;;7.60;;
17886;SDS011;9069;52.044;7.472;2023-06-22T12:59:52;11.80;;;8.38;;
17886;SDS011;9069;52.044;7.472;2023-06-22T13:02:19;11.95;;;8.70;;
17886;SDS011;9069;52.044;7.472;2023-06-22T13:04:46;13.93;;;9.85;;
17886;SDS011;9069;52.044;7.472;2023-06-22T13:07:13;12.23;;;9.85;;
17886;SDS011;9069;52.044;7.472;2023-06-22T13:09:48;12.20;;;9.07;;
17886;SDS011;9069;52.044;7.472;2023-06-22T13:12:20;12.32;;;9.60;;
17886;SDS011;9069;52.044;7.472;2023-06-22T13:14:47;12.70;;;10.10;;
17886;SDS011;9069;52.044;7.472;2023-06-22T13:17:14;13.27;;;9.52;;
17886;SDS011;9069;52.044;7.472;2023-06-22T13:19:41;17.50;;;9.38;;
17886;SDS011;9069;52.044;7.472;2023-06-22T13:22:28;15.95;;;10.13;;
17886;SDS011;9069;52.044;7.472;2023-06-22T13:24:59;13.48;;;9.25;;
17886;SDS011;9069;52.044;7.472;2023-06-22T13:27:26;13.48;;;9.88;;
17886;SDS011;9069;52.044;7.472;2023-06-22T13:29:53;13.45;;;10.00;;
17886;SDS011;9069;52.044;7.472;2023-06-22T13:32:20;14.88;;;10.88;;
17886;SDS011;9069;52.044;7.472;2023-06-22T13:34:46;14.23;;;9.77;;
17886;SDS011;9069;52.044;7.472;2023-06-22T13:37:13;15.70;;;11.13;;
17886;SDS011;9069;52.044;7.472;2023-06-22T13:39:40;18.30;;;11.48;;
17886;SDS011;9069;52.044;7.472;2023-06-22T13:42:07;16.00;;;11.40;;
17886;SDS011;9069;52.044;7.472;2023-06-22T13:44:34;14.52;;;11.45;;
17886;SDS011;9069;52.044;7.472;2023-06-22T13:47:01;16.10;;;12.15;;
17886;SDS011;9069;52.044;7.472;2023-06-22T13:49:28;14.20;;;11.07;;
17886;SDS011;9069;52.044;7.472;2023-06-22T13:51:54;15.18;;;12.10;;
17886;SDS011;9069;52.044;7.472;2023-06-22T13:54:21;13.95;;;12.07;;
17886;SDS011;9069;52.044;7.472;2023-06-22T13:56:51;14.38;;;12.20;;
17886;SDS011;9069;52.044;7.472;2023-06-22T13:59:18;15.68;;;12.70;;
17886;SDS011;9069;52.044;7.472;2023-06-22T14:01:46;14.98;;;12.48;;
17886;SDS011;9069;52.044;7.472;2023-06-22T14:04:12;16.13;;;12.98;;
17886;SDS011;9069;52.044;7.472;2023-06-22T14:06:39;14.43;;;11.75;;
17886;SDS011;9069;52.044;7.472;2023-06-22T14:09:06;14.50;;;11.77;;
17886;SDS011;9069;52.044;7.472;2023-06-22T14:11:33;14.63;;;11.73;;
17886;SDS011;9069;52.044;7.472;2023-06-22T14:14:00;13.48;;;10.70;;
17886;SDS011;9069;52.044;7.472;2023-06-22T14:16:26;16.92;;;12.02;;
17886;SDS011;9069;52.044;7.472;2023-06-22T14:18:53;13.55;;;12.07;;
17886;SDS011;9069;52.044;7.472;2023-06-22T14:21:23;16.75;;;11.68;;
17886;SDS011;9069;52.044;7.472;2023-06-22T14:23:50;18.73;;;13.40;;
17886;SDS011;9069;52.044;7.472;2023-06-22T14:26:17;16.23;;;12.38;;
17886;SDS011;9069;52.044;7.472;2023-06-22T14:28:45;13.98;;;11.93;;
17886;SDS011;9069;52.044;7.472;2023-06-22T14:31:17;15.90;;;12.75;;
17886;SDS011;9069;52.044;7.472;2023-06-22T14:33:48;17.23;;;12.93;;
17886;SDS011;9069;52.044;7.472;2023-06-22T14:36:16;17.83;;;12.13;;
17886;SDS011;9069;52.044;7.472;2023-06-22T14:38:44;13.60;;;12.10;;
17886;SDS011;9069;52.044;7.472;2023-06-22T14:41:12;19.25;;;12.80;;
17886;SDS011;9069;52.044;7.472;2023-06-22T14:43:48;14.52;;;10.98;;
17886;SDS011;9069;52.044;7.472;2023-06-22T14:46:17;22.75;;;11.90;;
17886;SDS011;9069;52.044;7.472;2023-06-22T14:48:44;14.85;;;12.68;;
17886;SDS011;9069;52.044;7.472;2023-06-22T14:51:11;15.32;;;12.65;;
17886;SDS011;9069;52.044;7.472;2023-06-22T14:53:43;15.05;;;13.07;;
17886;SDS011;9069;52.044;7.472;2023-06-22T14:56:11;16.02;;;12.95;;
17886;SDS011;9069;52.044;7.472;2023-06-22T14:58:40;15.45;;;12.50;;
17886;SDS011;9069;52.044;7.472;2023-06-22T15:01:07;14.50;;;11.95;;
17886;SDS011;9069;52.044;7.472;2023-06-22T15:03:34;13.40;;;10.90;;